Time;durP1;ratioP1;P1;durP2;ratioP2;P2;SDS_P1;SDS_P2;PMS_P1;PMS_P2;Temp;Humidity;BMP_temperature;BMP_pressure;BME280_temperature;BME280_humidity;BME280_pressure;Samples;Min_cycle;Max_cycle;Signal;HPM_P1;HPM_P2
2022/09/05 00:01:19;;;;;;;1.85;1.75;;;21.10;99.90;;;;;;5000577;28;20219;-72
2022/09/05 00:03:55;;;;;;;2.67;2.35;;;21.10;99.90;;;;;;5005843;28;20224;-72
2022/09/05 00:06:27;;;;;;;2.08;1.98;;;21.10;99.90;;;;;;5008411;28;20234;-72
2022/09/05 00:09:02;;;;;;;2.00;1.80;;;21.10;99.90;;;;;;5006326;28;20541;-73
2022/09/05 00:11:39;;;;;;;2.20;2.10;;;21.10;99.90;;;;;;5006434;28;20216;-72
2022/09/05 00:14:27;;;;;;;1.95;1.85;;;21.10;99.90;;;;;;5003179;28;20220;-72
2022/09/05 00:17:05;;;;;;;2.55;2.13;;;21.10;99.90;;;;;;5001506;28;20221;-72
2022/09/05 00:19:42;;;;;;;1.85;1.75;;;21.10;99.90;;;;;;5008601;28;20219;-73
2022/09/05 00:22:24;;;;;;;1.90;1.80;;;21.10;99.90;;;;;;5005497;28;20205;-72
2022/09/05 00:25:07;;;;;;;1.85;1.70;;;21.10;99.90;;;;;;5003438;28;20238;-72
2022/09/05 00:27:43;;;;;;;2.38;2.28;;;21.00;99.90;;;;;;5001680;28;20613;-72
2022/09/05 00:30:15;;;;;;;2.92;2.72;;;21.10;99.90;;;;;;5007065;28;20613;-73
2022/09/05 00:33:00;;;;;;;2.40;2.25;;;21.00;99.90;;;;;;5006803;28;20216;-72
2022/09/05 00:35:43;;;;;;;2.60;2.40;;;21.00;99.90;;;;;;5002824;28;20266;-71
2022/09/05 00:38:14;;;;;;;2.83;2.53;;;20.90;99.90;;;;;;5005382;28;20223;-71
2022/09/05 00:40:45;;;;;;;2.67;2.35;;;20.80;99.90;;;;;;5006693;28;20278;-71
2022/09/05 00:43:16;;;;;;;2.17;2.08;;;20.70;99.90;;;;;;5008573;28;20220;-71
2022/09/05 00:45:47;;;;;;;2.20;2.10;;;20.80;99.90;;;;;;5006993;28;20270;-71
2022/09/05 00:48:25;;;;;;;2.33;2.13;;;20.80;99.90;;;;;;5007472;28;20204;-71
2022/09/05 00:51:14;;;;;;;2.03;1.90;;;20.80;99.90;;;;;;5004398;28;20227;-70
2022/09/05 00:53:49;;;;;;;4.00;2.10;;;20.80;99.90;;;;;;5006747;28;20208;-71
2022/09/05 00:56:34;;;;;;;2.00;1.90;;;20.80;99.90;;;;;;5006879;28;20254;-71
2022/09/05 00:59:45;;;;;;;2.22;2.13;;;20.80;99.90;;;;;;5004910;28;20204;-71
2022/09/05 01:02:22;;;;;;;2.35;2.13;;;20.80;99.90;;;;;;4987649;28;20240;-71
2022/09/05 01:04:57;;;;;;;2.40;2.20;;;20.80;99.90;;;;;;5037416;22;20227;-73
2022/09/05 01:07:39;;;;;;;1.92;1.83;;;20.80;99.90;;;;;;5022741;28;20196;-77
2022/09/05 01:10:19;;;;;;;2.08;1.98;;;20.80;99.90;;;;;;5020509;28;20591;-74
2022/09/05 01:13:04;;;;;;;2.30;2.10;;;20.80;99.90;;;;;;5022020;28;20199;-74
2022/09/05 01:15:36;;;;;;;2.20;2.10;;;20.90;99.90;;;;;;5031517;28;20300;-74
2022/09/05 01:18:17;;;;;;;2.03;1.83;;;20.90;99.90;;;;;;5035098;28;20195;-74
2022/09/05 01:20:55;;;;;;;2.08;1.98;;;20.90;99.90;;;;;;5025617;28;20216;-74
2022/09/05 01:23:40;;;;;;;2.47;2.28;;;20.80;99.90;;;;;;5031128;28;20204;-77
2022/09/05 01:26:35;;;;;;;2.20;2.10;;;20.70;99.90;;;;;;5018697;28;20231;-76
2022/09/05 01:29:11;;;;;;;2.00;1.90;;;20.70;99.90;;;;;;5023780;28;20203;-74
2022/09/05 01:31:50;;;;;;;1.83;1.73;;;20.80;99.90;;;;;;5034041;28;20219;-73
2022/09/05 01:34:25;;;;;;;2.78;2.10;;;20.80;99.90;;;;;;5027450;28;20289;-75
2022/09/05 01:37:03;;;;;;;2.30;2.20;;;20.80;99.90;;;;;;5031250;28;20202;-74
2022/09/05 01:39:42;;;;;;;1.90;1.80;;;20.90;99.90;;;;;;5038249;28;20219;-77
2022/09/05 01:42:27;;;;;;;1.80;1.70;;;20.80;99.90;;;;;;5032183;28;20203;-74
2022/09/05 01:45:02;;;;;;;1.77;1.67;;;20.80;99.90;;;;;;5033964;28;20211;-75
2022/09/05 01:47:48;;;;;;;2.17;1.80;;;20.70;99.90;;;;;;5027134;28;20594;-78
2022/09/05 01:50:32;;;;;;;1.98;1.88;;;20.80;99.90;;;;;;5032414;28;20688;-75
2022/09/05 01:53:27;;;;;;;1.92;1.83;;;20.70;99.90;;;;;;5035116;28;20192;-75
2022/09/05 01:56:24;;;;;;;1.85;1.67;;;20.70;99.90;;;;;;5030916;28;20227;-75
2022/09/05 01:59:04;;;;;;;2.15;2.03;;;20.70;99.90;;;;;;5025539;28;20207;-74
2022/09/05 02:01:51;;;;;;;2.10;2.00;;;20.70;99.90;;;;;;5034608;28;20685;-74
2022/09/05 02:04:39;;;;;;;1.92;1.83;;;20.80;99.90;;;;;;5027484;28;20239;-75
2022/09/05 02:07:15;;;;;;;2.50;2.30;;;20.80;99.90;;;;;;5035051;28;20301;-74
2022/09/05 02:10:01;;;;;;;2.00;1.90;;;20.80;99.90;;;;;;5028591;28;20302;-75
2022/09/05 02:12:35;;;;;;;2.13;2.03;;;20.70;99.90;;;;;;5029475;28;20203;-75
2022/09/05 02:15:07;;;;;;;1.80;1.70;;;20.70;99.90;;;;;;5031386;28;20250;-75
2022/09/05 02:17:48;;;;;;;1.70;1.60;;;20.70;99.90;;;;;;5029544;28;20198;-75
2022/09/05 02:20:21;;;;;;;1.95;1.85;;;20.70;99.90;;;;;;5030477;28;20273;-74
2022/09/05 02:22:54;;;;;;;2.03;1.92;;;20.60;99.90;;;;;;5030595;28;20239;-74
2022/09/05 02:25:28;;;;;;;2.00;1.90;;;20.60;99.90;;;;;;5023753;28;20220;-75
2022/09/05 02:28:01;;;;;;;2.05;1.95;;;20.50;99.90;;;;;;5031679;28;20199;-74
2022/09/05 02:30:36;;;;;;;1.92;1.83;;;20.50;99.90;;;;;;5032481;28;20211;-74
2022/09/05 02:33:13;;;;;;;1.88;1.77;;;20.50;99.90;;;;;;5026560;28;20191;-74
2022/09/05 02:35:50;;;;;;;1.92;1.83;;;20.50;99.90;;;;;;5032610;28;20219;-74
2022/09/05 02:38:22;;;;;;;2.03;1.92;;;20.40;99.90;;;;;;5033247;28;20222;-74
2022/09/05 02:40:57;;;;;;;2.28;2.17;;;20.40;99.90;;;;;;5034353;28;20230;-74
2022/09/05 02:43:35;;;;;;;3.25;2.13;;;20.40;99.90;;;;;;5036532;28;20585;-74
2022/09/05 02:46:07;;;;;;;2.00;1.90;;;20.40;99.90;;;;;;5027101;28;20223;-74
2022/09/05 02:48:50;;;;;;;1.88;1.77;;;20.40;99.90;;;;;;5039543;28;20206;-74
2022/09/05 02:51:21;;;;;;;1.85;1.75;;;20.40;99.90;;;;;;5031656;28;20238;-74
2022/09/05 02:53:52;;;;;;;1.90;1.80;;;20.40;99.90;;;;;;5039184;28;20211;-76
2022/09/05 02:56:37;;;;;;;2.13;2.03;;;20.30;99.90;;;;;;5030324;28;20231;-74
2022/09/05 02:59:12;;;;;;;2.00;1.90;;;20.30;99.90;;;;;;5040404;28;20226;-73
2022/09/05 03:01:56;;;;;;;1.90;1.80;;;20.30;99.90;;;;;;5041610;28;20226;-75
2022/09/05 03:04:33;;;;;;;1.90;1.80;;;20.30;99.90;;;;;;5037388;28;20277;-74
2022/09/05 03:07:13;;;;;;;2.33;2.13;;;20.30;99.90;;;;;;5036813;28;20199;-74
2022/09/05 03:09:55;;;;;;;1.90;1.80;;;20.30;99.90;;;;;;5036718;28;20215;-75
2022/09/05 03:13:01;;;;;;;2.38;2.28;;;20.30;99.90;;;;;;5039283;28;20198;-74
2022/09/05 03:29:45;;;;;;;2.03;1.92;;;20.20;99.90;;;;;;5038749;28;20206;-75
2022/09/05 03:53:31;;;;;;;2.03;1.92;;;20.10;99.90;;;;;;5029534;28;20199;-74
2022/09/05 04:00:42;;;;;;;2.20;2.10;;;20.10;99.90;;;;;;5036992;28;20701;-75
2022/09/05 04:03:51;;;;;;;2.20;2.10;;;20.10;99.90;;;;;;5032433;28;20219;-74
2022/09/05 04:24:30;;;;;;;2.33;2.20;;;19.90;99.90;;;;;;5031697;28;20306;-74
2022/09/05 04:31:20;;;;;;;1.95;1.85;;;19.90;99.90;;;;;;4978411;28;20276;-77
2022/09/05 05:18:59;;;;;;;1.92;1.83;;;20.20;99.90;;;;;;5048034;28;20200;-77
2022/09/05 05:42:58;;;;;;;2.63;2.03;;;21.00;99.90;;;;;;5031822;28;20195;-76
2022/09/05 06:06:30;;;;;;;2.05;1.95;;;20.50;99.90;;;;;;4999673;28;20280;-76
2022/09/05 06:13:14;;;;;;;1.90;1.80;;;20.50;99.90;;;;;;4895257;29;20219;-75
2022/09/05 06:33:15;;;;;;;1.70;1.60;;;20.70;99.90;;;;;;5105659;27;20565;-77
2022/09/05 06:36:06;;;;;;;2.42;2.22;;;20.70;99.90;;;;;;5053555;28;20226;-79
2022/09/05 06:38:57;;;;;;;2.00;1.90;;;20.70;99.90;;;;;;5046476;28;20195;-75
2022/09/05 06:41:33;;;;;;;2.00;1.90;;;20.90;99.90;;;;;;5037935;28;20215;-76
2022/09/05 06:44:21;;;;;;;2.33;2.13;;;21.00;99.90;;;;;;5042238;28;20227;-75
2022/09/05 06:46:53;;;;;;;2.30;2.10;;;21.00;99.90;;;;;;5050910;28;20246;-75
2022/09/05 06:49:24;;;;;;;1.73;1.63;;;21.00;99.90;;;;;;5041154;28;20231;-75
2022/09/05 06:52:27;;;;;;;2.38;1.70;;;21.20;99.90;;;;;;5049370;28;20294;-74
2022/09/05 06:55:29;;;;;;;1.80;1.70;;;21.30;99.90;;;;;;5039001;28;20215;-76
2022/09/05 06:58:28;;;;;;;2.13;2.03;;;21.30;99.90;;;;;;5040410;28;20203;-74
2022/09/05 07:00:57;;;;;;;2.00;1.90;;;21.40;99.90;;;;;;5046846;28;20215;-75
2022/09/05 07:06:10;;;;;;;3.20;2.10;;;21.40;99.90;;;;;;5050818;28;20225;-72
2022/09/05 07:08:50;;;;;;;2.20;2.10;;;21.40;99.90;;;;;;5053811;28;20617;-73
2022/09/05 07:11:21;;;;;;;2.00;1.90;;;21.30;99.90;;;;;;5057025;28;20218;-72
2022/09/05 07:14:01;;;;;;;2.10;2.00;;;21.10;99.90;;;;;;5056529;28;20669;-72
2022/09/05 07:16:38;;;;;;;1.75;1.65;;;21.00;99.90;;;;;;5051610;28;20214;-73
2022/09/05 07:19:24;;;;;;;2.13;2.03;;;20.90;99.90;;;;;;5051163;28;20207;-72
2022/09/05 07:22:12;;;;;;;2.17;2.03;;;20.90;99.90;;;;;;5051025;28;20561;-72
2022/09/05 07:24:44;;;;;;;2.03;1.92;;;20.90;99.90;;;;;;5048229;28;20222;-73
2022/09/05 07:27:26;;;;;;;2.33;2.13;;;21.10;99.90;;;;;;5049168;28;20202;-74
2022/09/05 07:29:58;;;;;;;6.88;2.25;;;21.30;99.90;;;;;;5051308;28;20239;-73
2022/09/05 07:32:27;;;;;;;2.03;1.92;;;21.80;99.90;;;;;;5052993;28;20272;-74
2022/09/05 07:34:55;;;;;;;2.40;1.90;;;22.50;99.90;;;;;;5050342;28;20226;-73
2022/09/05 07:37:32;;;;;;;3.00;2.35;;;23.10;99.90;;;;;;5053524;28;20205;-73
2022/09/05 07:40:08;;;;;;;2.33;1.80;;;23.00;99.90;;;;;;5049936;28;20218;-73
2022/09/05 07:42:40;;;;;;;1.83;1.73;;;22.90;99.90;;;;;;5043218;28;20281;-73
2022/09/05 07:45:10;;;;;;;1.88;1.75;;;22.90;99.90;;;;;;5034197;28;20269;-73
2022/09/05 07:47:43;;;;;;;2.13;1.92;;;22.80;99.90;;;;;;5035557;28;20210;-73
2022/09/05 07:50:11;;;;;;;2.47;2.22;;;23.30;99.90;;;;;;5035900;28;20227;-73
2022/09/05 07:52:43;;;;;;;2.28;2.17;;;23.70;99.90;;;;;;5039276;28;20257;-73
2022/09/05 07:55:22;;;;;;;2.50;2.30;;;23.70;99.90;;;;;;5035903;28;20226;-72
2022/09/05 07:57:50;;;;;;;2.67;2.03;;;23.60;99.90;;;;;;5037902;28;20330;-72
2022/09/05 08:00:20;;;;;;;1.90;1.80;;;23.60;99.90;;;;;;5039419;28;20583;-71
2022/09/05 08:02:48;;;;;;;2.72;1.80;;;23.80;99.90;;;;;;5037741;28;20693;-73
2022/09/05 08:05:18;;;;;;;1.98;1.85;;;24.00;99.90;;;;;;5032752;28;20243;-72
2022/09/05 08:07:51;;;;;;;3.03;1.95;;;24.10;99.90;;;;;;5034595;28;20217;-72
2022/09/05 08:10:22;;;;;;;2.20;2.10;;;24.20;99.90;;;;;;5037416;28;20234;-72
2022/09/05 08:12:56;;;;;;;2.30;2.10;;;24.40;99.90;;;;;;5038085;28;20215;-72
2022/09/05 08:15:26;;;;;;;2.38;2.17;;;24.70;99.90;;;;;;5034615;28;20230;-72
2022/09/05 08:18:04;;;;;;;2.90;2.05;;;24.70;99.90;;;;;;5039474;28;20194;-73
2022/09/05 08:20:36;;;;;;;3.63;2.20;;;24.60;99.90;;;;;;5033778;28;20226;-73
2022/09/05 08:23:11;;;;;;;2.55;1.92;;;24.60;99.90;;;;;;5034465;28;20187;-73
2022/09/05 08:25:43;;;;;;;2.83;2.30;;;24.80;99.90;;;;;;5037042;28;20230;-72
2022/09/05 08:28:19;;;;;;;2.50;2.30;;;25.00;99.90;;;;;;5037738;28;20243;-73
2022/09/05 08:30:54;;;;;;;2.30;2.10;;;24.70;99.90;;;;;;5035787;28;20786;-73
2022/09/05 08:33:25;;;;;;;2.45;2.25;;;24.90;99.90;;;;;;5034980;28;20205;-73
2022/09/05 08:35:56;;;;;;;2.22;2.03;;;25.20;99.90;;;;;;5037632;28;20641;-73
2022/09/05 08:38:27;;;;;;;2.08;1.88;;;25.40;99.90;;;;;;5033949;28;20203;-72
2022/09/05 08:41:05;;;;;;;2.30;2.10;;;25.40;99.90;;;;;;5034536;28;20285;-71
2022/09/05 08:43:38;;;;;;;2.17;1.98;;;25.20;99.90;;;;;;5033003;28;20283;-73
2022/09/05 08:46:13;;;;;;;2.17;1.70;;;25.20;99.90;;;;;;5038541;28;20999;-73
2022/09/05 08:48:58;;;;;;;3.05;2.38;;;25.40;99.90;;;;;;5037735;28;20224;-74
2022/09/05 08:51:31;;;;;;;2.00;1.90;;;25.40;99.90;;;;;;5033311;28;20723;-73
2022/09/05 08:54:18;;;;;;;2.45;2.15;;;25.50;99.90;;;;;;5030172;28;20218;-74
2022/09/05 08:56:54;;;;;;;2.40;2.08;;;25.50;99.90;;;;;;5033744;28;20611;-72
2022/09/05 08:59:38;;;;;;;2.53;2.30;;;25.40;99.90;;;;;;5034539;28;20194;-73
2022/09/05 09:02:33;;;;;;;2.05;1.95;;;25.60;99.90;;;;;;5033181;28;20198;-73
2022/09/05 09:05:10;;;;;;;2.50;2.30;;;26.10;99.90;;;;;;5034017;28;20227;-73
2022/09/05 09:07:42;;;;;;;2.45;2.25;;;26.10;99.90;;;;;;5037378;28;20202;-72
2022/09/05 09:10:25;;;;;;;4.15;2.38;;;26.10;99.90;;;;;;5035972;28;20211;-72
2022/09/05 09:13:10;;;;;;;4.20;2.72;;;26.30;99.90;;;;;;5030341;28;20245;-73
2022/09/05 09:15:40;;;;;;;2.20;2.00;;;26.10;99.90;;;;;;5033102;28;20465;-73
2022/09/05 09:18:14;;;;;;;2.30;2.10;;;26.10;99.90;;;;;;5037026;28;20215;-73
2022/09/05 09:20:54;;;;;;;2.63;2.17;;;26.20;99.90;;;;;;5035230;28;20238;-73
2022/09/05 09:23:48;;;;;;;2.17;2.08;;;26.30;99.90;;;;;;5034800;28;20195;-73
2022/09/05 09:26:19;;;;;;;2.67;2.47;;;26.40;99.90;;;;;;5036103;28;20762;-73
2022/09/05 09:28:50;;;;;;;2.55;2.35;;;26.20;99.90;;;;;;5033873;28;20199;-72
2022/09/05 09:31:37;;;;;;;2.05;1.95;;;26.30;99.90;;;;;;5035607;28;20693;-72
2022/09/05 09:34:19;;;;;;;3.28;2.20;;;26.30;99.90;;;;;;5032692;28;20597;-72
2022/09/05 09:37:14;;;;;;;2.78;2.40;;;26.40;99.90;;;;;;5033467;28;20226;-72
2022/09/05 09:40:00;;;;;;;3.28;2.20;;;26.70;99.90;;;;;;5030291;28;20219;-72
2022/09/05 09:42:38;;;;;;;4.35;2.35;;;26.80;99.90;;;;;;5035992;28;20566;-72
2022/09/05 09:45:47;;;;;;;3.72;2.10;;;26.80;99.90;;;;;;5033406;28;20230;-72
2022/09/05 09:48:42;;;;;;;2.40;2.20;;;26.90;99.90;;;;;;5021170;28;20210;-75
2022/09/05 09:51:33;;;;;;;2.30;2.00;;;27.00;99.90;;;;;;5031853;28;20232;-73
2022/09/05 09:54:45;;;;;;;2.22;2.03;;;27.10;99.90;;;;;;5032272;28;20219;-72
2022/09/05 09:57:40;;;;;;;3.05;2.28;;;27.20;99.90;;;;;;5031564;28;20215;-72
2022/09/05 10:00:14;;;;;;;2.38;2.17;;;27.40;99.90;;;;;;5034412;28;20292;-73
2022/09/05 10:03:14;;;;;;;2.35;2.25;;;27.50;99.90;;;;;;5034343;28;20940;-73
2022/09/05 10:06:12;;;;;;;2.17;1.90;;;27.30;99.90;;;;;;5003157;28;20227;-74
2022/09/05 10:09:06;;;;;;;3.45;2.30;;;27.20;99.90;;;;;;5011550;28;20195;-72
2022/09/05 10:11:55;;;;;;;4.20;2.38;;;27.40;99.90;;;;;;5029181;28;20253;-73
2022/09/05 10:14:55;;;;;;;2.33;2.13;;;27.60;99.90;;;;;;5031220;28;20306;-73
2022/09/05 10:17:51;;;;;;;2.30;2.10;;;27.80;99.90;;;;;;5018852;28;20191;-73
2022/09/05 10:20:38;;;;;;;2.50;2.20;;;27.80;99.90;;;;;;5033805;28;20777;-73
2022/09/05 10:23:38;;;;;;;3.20;2.00;;;27.70;99.90;;;;;;5034437;28;20237;-73
2022/09/05 10:26:36;;;;;;;3.60;2.22;;;27.80;99.90;;;;;;5030403;28;20728;-73
2022/09/05 10:29:07;;;;;;;3.35;2.45;;;28.00;99.90;;;;;;5032659;28;20195;-73
2022/09/05 10:31:55;;;;;;;2.55;2.35;;;28.20;99.90;;;;;;5034564;28;20230;-72
2022/09/05 10:34:26;;;;;;;2.55;2.35;;;28.10;99.90;;;;;;5032473;28;20237;-72
2022/09/05 10:37:01;;;;;;;2.60;2.20;;;28.00;99.90;;;;;;5027011;28;20198;-72
2022/09/05 10:39:32;;;;;;;2.47;2.28;;;27.90;99.90;;;;;;5028808;28;20356;-72
2022/09/05 10:42:05;;;;;;;2.00;1.90;;;27.90;99.90;;;;;;5035441;28;20204;-71
2022/09/05 10:44:39;;;;;;;3.17;2.22;;;28.00;99.90;;;;;;5029774;28;20276;-71
2022/09/05 10:47:18;;;;;;;2.60;2.45;;;28.20;99.90;;;;;;5030470;28;20657;-71
2022/09/05 10:49:50;;;;;;;2.15;2.05;;;28.30;99.90;;;;;;5035838;28;20227;-71
2022/09/05 10:52:38;;;;;;;2.15;2.00;;;28.40;99.90;;;;;;5032789;28;20206;-71
2022/09/05 10:55:20;;;;;;;2.20;2.08;;;28.50;99.90;;;;;;5028345;28;20223;-72
2022/09/05 10:58:04;;;;;;;2.33;2.17;;;28.50;99.90;;;;;;5032297;28;20199;-71
2022/09/05 11:00:58;;;;;;;2.50;2.30;;;28.40;99.90;;;;;;5028531;28;21130;-72
2022/09/05 11:03:30;;;;;;;2.40;2.20;;;28.20;99.90;;;;;;5030006;28;20206;-70
2022/09/05 11:06:04;;;;;;;3.00;2.67;;;28.30;99.90;;;;;;5029392;28;20246;-70
2022/09/05 11:08:40;;;;;;;2.45;2.30;;;28.40;99.90;;;;;;5027575;28;20200;-72
2022/09/05 11:11:14;;;;;;;2.67;2.42;;;28.50;99.90;;;;;;5035417;28;21055;-70
2022/09/05 11:13:46;;;;;;;2.67;2.17;;;28.50;99.90;;;;;;5032159;28;20226;-70
2022/09/05 11:16:26;;;;;;;2.65;2.08;;;28.50;99.90;;;;;;5029816;28;20219;-72
2022/09/05 11:18:59;;;;;;;2.42;1.80;;;28.40;99.90;;;;;;5030601;28;20203;-70
2022/09/05 11:21:38;;;;;;;2.20;2.10;;;28.40;99.90;;;;;;5032780;28;20234;-72
2022/09/05 11:24:12;;;;;;;2.53;2.33;;;28.60;99.90;;;;;;5032694;28;20597;-70
2022/09/05 11:26:45;;;;;;;3.90;2.50;;;28.80;99.90;;;;;;5033119;28;20226;-68
2022/09/05 11:29:16;;;;;;;2.35;2.08;;;28.90;99.90;;;;;;5033490;28;20208;-70
2022/09/05 11:31:59;;;;;;;2.40;2.22;;;28.80;99.90;;;;;;5040597;28;20214;-71
2022/09/05 11:34:51;;;;;;;2.38;2.20;;;28.90;99.90;;;;;;5040134;28;20223;-71
2022/09/05 11:37:37;;;;;;;3.67;2.20;;;29.10;99.90;;;;;;5035084;28;20409;-71
2022/09/05 11:40:25;;;;;;;2.30;2.20;;;29.00;99.90;;;;;;5036935;28;20253;-71
2022/09/05 11:43:20;;;;;;;2.20;2.00;;;29.30;99.90;;;;;;5041319;28;20198;-73
2022/09/05 11:46:15;;;;;;;2.40;2.20;;;29.60;99.90;;;;;;5035813;28;20222;-72
2022/09/05 11:49:18;;;;;;;2.40;2.20;;;29.80;99.90;;;;;;5021463;28;20208;-71
2022/09/05 11:52:24;;;;;;;2.10;2.00;;;30.10;99.90;;;;;;5037253;28;20912;-73
2022/09/05 11:55:20;;;;;;;2.78;2.58;;;29.60;99.90;;;;;;5038641;28;20226;-73
2022/09/05 11:58:17;;;;;;;2.65;2.45;;;29.20;99.90;;;;;;5042435;28;20195;-73
2022/09/05 12:00:51;;;;;;;3.47;2.50;;;29.10;99.90;;;;;;5022851;28;20219;-72
2022/09/05 12:03:40;;;;;;;3.47;2.53;;;28.90;99.90;;;;;;5041345;28;20206;-73
2022/09/05 12:06:24;;;;;;;2.60;2.08;;;28.70;99.90;;;;;;5039738;28;20223;-72
2022/09/05 12:08:55;;;;;;;2.10;2.00;;;28.50;99.90;;;;;;5036033;28;20195;-72
2022/09/05 12:11:42;;;;;;;2.72;2.53;;;28.40;99.90;;;;;;5037209;28;20230;-71
2022/09/05 12:14:35;;;;;;;2.58;2.17;;;28.50;99.90;;;;;;5041811;28;20226;-73
2022/09/05 12:17:09;;;;;;;2.20;2.05;;;28.50;99.90;;;;;;5039364;28;20198;-71
2022/09/05 12:19:43;;;;;;;2.20;2.08;;;28.50;99.90;;;;;;5041448;28;20234;-72
2022/09/05 12:22:29;;;;;;;2.30;2.10;;;28.50;99.90;;;;;;5042145;28;20195;-72
2022/09/05 12:25:24;;;;;;;2.83;2.00;;;28.70;99.90;;;;;;5039112;28;20254;-72
2022/09/05 12:27:56;;;;;;;2.58;2.13;;;29.30;99.90;;;;;;5039891;28;20272;-71
2022/09/05 12:30:26;;;;;;;2.20;2.00;;;30.00;99.90;;;;;;5040757;28;21302;-71
2022/09/05 12:32:56;;;;;;;2.08;1.90;;;30.20;99.90;;;;;;5041628;28;20237;-71
2022/09/05 12:35:35;;;;;;;2.10;1.90;;;30.00;99.90;;;;;;5041041;28;20229;-73
2022/09/05 12:38:22;;;;;;;2.65;2.10;;;29.60;99.90;;;;;;5039857;28;20732;-72
2022/09/05 12:40:56;;;;;;;1.70;1.60;;;29.20;99.90;;;;;;5036880;28;20804;-72
2022/09/05 12:43:27;;;;;;;2.15;1.95;;;28.80;99.90;;;;;;5039664;28;20194;-72
2022/09/05 12:45:59;;;;;;;3.45;2.00;;;28.60;99.90;;;;;;5036348;28;20793;-71
2022/09/05 12:48:32;;;;;;;2.17;1.92;;;28.60;99.90;;;;;;5029002;28;20194;-71
2022/09/05 12:51:04;;;;;;;2.63;1.90;;;28.70;99.90;;;;;;5036899;28;20227;-72
2022/09/05 12:53:43;;;;;;;2.30;2.10;;;28.70;99.90;;;;;;5037659;28;20986;-70
2022/09/05 12:56:17;;;;;;;2.20;2.00;;;28.50;99.90;;;;;;5037705;28;20218;-72
2022/09/05 12:58:50;;;;;;;2.05;1.92;;;28.40;99.90;;;;;;5039942;28;20204;-73
2022/09/05 13:01:30;;;;;;;2.40;2.20;;;28.30;99.90;;;;;;5036820;28;20341;-72
2022/09/05 13:04:01;;;;;;;2.47;2.28;;;28.20;99.90;;;;;;5040715;28;20664;-73
2022/09/05 13:06:34;;;;;;;2.10;2.00;;;28.00;99.90;;;;;;5032389;28;20239;-72
2022/09/05 13:09:07;;;;;;;2.10;2.00;;;27.90;99.90;;;;;;5040460;28;20202;-72
2022/09/05 13:11:49;;;;;;;3.13;2.80;;;27.90;99.90;;;;;;5037679;28;20225;-73
2022/09/05 13:14:23;;;;;;;2.70;2.45;;;27.80;99.90;;;;;;5036488;28;20226;-73
2022/09/05 13:16:51;;;;;;;2.35;2.10;;;27.80;99.90;;;;;;5038179;28;20204;-72
2022/09/05 13:19:31;;;;;;;3.78;2.40;;;27.90;99.90;;;;;;5034493;28;20215;-70
2022/09/05 13:22:01;;;;;;;4.18;2.60;;;27.90;99.90;;;;;;5038239;28;20589;-71
2022/09/05 13:24:34;;;;;;;2.85;2.58;;;27.90;99.90;;;;;;5036193;28;20238;-71
2022/09/05 13:27:12;;;;;;;2.42;2.22;;;27.80;99.90;;;;;;5036397;28;20202;-74
2022/09/05 13:29:52;;;;;;;3.65;2.47;;;27.80;99.90;;;;;;5034053;28;20222;-74
2022/09/05 13:32:28;;;;;;;2.05;1.95;;;27.80;99.90;;;;;;5034280;28;20195;-72
2022/09/05 13:35:03;;;;;;;2.60;2.40;;;27.80;99.90;;;;;;5035309;28;20230;-74
2022/09/05 13:37:34;;;;;;;2.55;2.33;;;27.80;99.90;;;;;;5036117;28;20244;-74
2022/09/05 13:40:08;;;;;;;2.42;2.22;;;27.80;99.90;;;;;;5035651;28;20277;-73
2022/09/05 13:42:39;;;;;;;2.67;2.47;;;27.90;99.90;;;;;;5039249;28;20207;-73
2022/09/05 13:45:17;;;;;;;2.72;2.45;;;28.00;99.90;;;;;;5035500;28;20228;-73
2022/09/05 13:48:29;;;;;;;2.60;2.40;;;28.20;99.90;;;;;;5037458;28;20210;-73
2022/09/05 13:51:03;;;;;;;2.33;2.10;;;28.60;99.90;;;;;;5033294;28;20728;-72
2022/09/05 13:53:35;;;;;;;3.80;2.78;;;28.60;99.90;;;;;;5031926;28;20229;-74
2022/09/05 13:56:22;;;;;;;2.10;2.00;;;28.40;99.90;;;;;;5034425;28;20211;-73
2022/09/05 13:58:52;;;;;;;2.40;2.20;;;28.40;99.90;;;;;;5038536;28;20688;-73
2022/09/05 14:02:06;;;;;;;2.45;2.25;;;28.30;99.90;;;;;;5038467;28;20226;-73
2022/09/05 14:05:01;;;;;;;2.50;2.30;;;28.20;99.90;;;;;;5036190;28;20246;-71
2022/09/05 14:08:16;;;;;;;2.60;2.40;;;27.90;99.90;;;;;;5030546;28;20203;-72
2022/09/05 14:11:27;;;;;;;2.70;2.15;;;27.70;99.90;;;;;;5036797;28;20810;-72
2022/09/05 14:14:08;;;;;;;2.58;2.20;;;27.50;99.90;;;;;;5016486;28;20211;-72
2022/09/05 14:16:41;;;;;;;2.75;2.50;;;27.50;99.90;;;;;;5037850;28;20642;-73
2022/09/05 14:22:04;;;;;;;2.92;2.53;;;27.50;99.90;;;;;;5036260;28;20206;-74
2022/09/05 14:24:36;;;;;;;2.42;2.30;;;27.40;99.90;;;;;;5037615;28;20242;-73
2022/09/05 14:27:13;;;;;;;3.20;2.38;;;27.30;99.90;;;;;;5037398;28;20195;-73
2022/09/05 14:29:45;;;;;;;2.50;2.30;;;27.30;99.90;;;;;;5039380;28;20222;-73
2022/09/05 14:32:44;;;;;;;2.60;2.40;;;27.20;99.90;;;;;;5035688;28;20191;-73
2022/09/05 14:35:19;;;;;;;2.85;2.60;;;27.10;99.90;;;;;;5042116;28;20215;-74
2022/09/05 14:37:55;;;;;;;2.72;2.53;;;27.00;99.90;;;;;;5039271;28;20202;-72
2022/09/05 14:41:10;;;;;;;3.40;2.45;;;26.90;99.90;;;;;;5037521;28;20211;-73
2022/09/05 14:44:02;;;;;;;3.60;2.45;;;27.00;99.90;;;;;;5038983;28;20194;-73
2022/09/05 14:46:45;;;;;;;3.90;2.45;;;27.00;99.90;;;;;;5038685;28;20643;-73
2022/09/05 14:49:38;;;;;;;3.30;2.55;;;27.00;99.90;;;;;;5035329;28;20195;-73
2022/09/05 14:52:17;;;;;;;2.33;2.15;;;26.90;99.90;;;;;;5034574;28;20202;-73
2022/09/05 14:54:51;;;;;;;2.45;2.25;;;27.00;99.90;;;;;;5036912;28;20607;-73
2022/09/05 14:57:21;;;;;;;2.95;2.28;;;27.00;99.90;;;;;;5038628;28;20199;-73
2022/09/05 14:59:50;;;;;;;2.70;2.50;;;27.00;99.90;;;;;;5039986;28;20223;-73
2022/09/05 15:02:23;;;;;;;3.47;2.20;;;27.00;99.90;;;;;;5040053;28;20269;-73
2022/09/05 15:04:54;;;;;;;3.40;2.25;;;27.00;99.90;;;;;;5034700;28;20230;-73
2022/09/05 15:07:24;;;;;;;2.72;2.50;;;26.90;99.90;;;;;;5041116;28;20191;-72
2022/09/05 15:10:10;;;;;;;3.53;2.50;;;26.90;99.90;;;;;;5039692;28;20825;-74
2022/09/05 15:12:46;;;;;;;2.33;2.17;;;27.00;99.90;;;;;;5040177;28;20207;-74
2022/09/05 15:15:21;;;;;;;3.35;2.47;;;27.20;99.90;;;;;;5037409;28;20296;-74
2022/09/05 15:17:53;;;;;;;3.97;2.65;;;27.30;99.90;;;;;;5040465;28;20211;-73
2022/09/05 15:20:34;;;;;;;2.70;2.20;;;27.50;99.90;;;;;;5040107;28;20238;-72
2022/09/05 15:23:03;;;;;;;2.72;2.53;;;27.60;99.90;;;;;;5037857;28;20569;-72
2022/09/05 15:25:32;;;;;;;2.40;2.20;;;27.70;99.90;;;;;;5039409;28;20234;-72
2022/09/05 15:27:59;;;;;;;2.80;2.55;;;27.70;99.90;;;;;;5036807;28;20198;-72
2022/09/05 15:30:28;;;;;;;4.20;2.03;;;27.70;99.90;;;;;;5039472;28;20265;-72
2022/09/05 15:33:14;;;;;;;2.25;2.15;;;27.60;99.90;;;;;;5038587;28;20200;-71
2022/09/05 15:35:43;;;;;;;3.05;2.75;;;27.40;99.90;;;;;;5036578;28;20234;-71
2022/09/05 15:38:27;;;;;;;2.25;1.85;;;27.20;99.90;;;;;;5042283;28;20590;-73
2022/09/05 15:41:16;;;;;;;2.40;2.20;;;27.10;99.90;;;;;;5035519;28;20697;-72
2022/09/05 15:43:58;;;;;;;2.10;2.00;;;27.00;99.90;;;;;;5034640;28;20221;-73
2022/09/05 15:46:45;;;;;;;2.35;2.15;;;27.00;99.90;;;;;;5036691;28;20211;-71
2022/09/05 15:49:24;;;;;;;2.97;2.72;;;26.90;99.90;;;;;;5038700;28;20687;-72
2022/09/05 15:51:54;;;;;;;3.67;2.72;;;26.70;99.90;;;;;;5037523;28;20198;-68
2022/09/05 15:54:26;;;;;;;2.95;2.70;;;26.70;99.90;;;;;;5032900;28;20303;-69
2022/09/05 15:56:56;;;;;;;2.67;2.47;;;26.60;99.90;;;;;;5035775;28;20548;-68
2022/09/05 15:59:29;;;;;;;4.82;2.75;;;26.50;99.90;;;;;;5034640;28;20645;-69
2022/09/05 16:01:57;;;;;;;2.47;2.28;;;26.40;99.90;;;;;;5034477;28;20585;-69
2022/09/05 16:04:26;;;;;;;2.70;2.50;;;26.40;99.90;;;;;;5033672;28;20225;-69
2022/09/05 16:06:57;;;;;;;3.85;2.30;;;26.40;99.90;;;;;;5038445;28;20295;-69
2022/09/05 16:09:38;;;;;;;2.83;2.20;;;26.40;99.90;;;;;;5031631;28;20210;-69
2022/09/05 16:12:08;;;;;;;3.10;2.80;;;26.40;99.90;;;;;;5035517;28;20257;-70
2022/09/05 16:14:42;;;;;;;2.95;2.75;;;26.30;99.90;;;;;;5035570;28;20709;-70
2022/09/05 16:17:19;;;;;;;3.08;2.88;;;26.30;99.90;;;;;;5038098;28;20203;-71
2022/09/05 16:19:49;;;;;;;3.47;2.60;;;26.20;99.90;;;;;;5036073;28;20728;-70
2022/09/05 16:22:20;;;;;;;3.58;2.40;;;26.20;99.90;;;;;;5040959;28;20210;-69
2022/09/05 16:24:53;;;;;;;2.45;2.30;;;26.10;99.90;;;;;;5039205;28;20225;-69
2022/09/05 16:27:41;;;;;;;4.63;3.35;;;26.00;99.90;;;;;;5036428;28;20314;-69
2022/09/05 16:30:11;;;;;;;4.05;2.90;;;26.00;99.90;;;;;;5037536;28;20710;-70
2022/09/05 16:32:41;;;;;;;3.05;2.63;;;26.00;99.90;;;;;;5036246;28;20260;-69
2022/09/05 16:35:10;;;;;;;2.65;2.45;;;26.00;99.90;;;;;;5034911;28;20296;-68
2022/09/05 16:37:41;;;;;;;4.00;2.50;;;26.00;99.90;;;;;;5034415;28;20202;-69
2022/09/05 16:40:18;;;;;;;2.80;2.60;;;25.90;99.90;;;;;;5037692;28;20231;-69
2022/09/05 16:42:51;;;;;;;3.28;2.97;;;25.90;99.90;;;;;;5036803;28;20210;-70
2022/09/05 16:45:30;;;;;;;2.60;2.40;;;25.90;99.90;;;;;;5037796;28;20226;-69
2022/09/05 16:48:13;;;;;;;2.70;2.50;;;25.90;99.90;;;;;;5036110;28;20218;-69